Storm Events Database

Event Details

Event Thunderstorm Wind
Magnitude 58 kts.
State TEXAS
County/Area COLLIN
WFO FWD
Begin Date 06/21/2011 02:09:00 CST-6
Begin Range 0
Begin Azimuth N
Begin Location FRISCO
Begin Lat/Lon 33.15/-96.83
End Date 06/21/2011 02:09:00 CST-6
Deaths Direct/Indirect 0/0 (fatality details below, when available...)
Injuries Direct/Indirect 0/0
Property Damage 8.00K
Crop Damage 0.00K
Episode Narrative A strong summertime trough dug into the Plains with an attendant dryline and cold front moving into north Texas. Two rounds of storms affected north Texas beginning the evening of the 20th and continuing into the early morning hours of the 21st. The first round of storms developed in association with the dryline as it reached the western edges of the CWA. The second round of storms developed along the cold front as it also approached the western edges of the CWA. Nearly all of the storms and severe weather occurred along and north of Interstate 20. Hail and damaging winds were the main hazards with both lines of storms but a brief tornado did occur in Stephens County near Eliasville. Severe thunderstorm winds ripped roofs off buildings in Wise County and two people were injured in association with the roof damage. Most of the hail was golfball size or smaller but a few reports up to baseball size were received. Large amounts of hail up to the size of golfballs fell in Denton County damaging windows, buildings, and roofs in several cities across the southern half of the county.
Event Narrative A 67 MPH wind gust was reported in Frisco.


All events for this episode:

Location County/Zone St. Date Time T.Z. Type Mag Dth Inj PrD CrD
Totals: 0 2 1.802M 0.00K
OLNEY YOUNG CO. TX 06/20/2011 16:59 CST-6 Hail 0.75 in. 0 0 0.00K 0.00K
OLNEY YOUNG CO. TX 06/20/2011 17:20 CST-6 Hail 1.50 in. 0 0 1.00K 0.00K
JEAN YOUNG CO. TX 06/20/2011 17:31 CST-6 Hail 1.75 in. 0 0 6.00K 0.00K
MURRAY YOUNG CO. TX 06/20/2011 17:40 CST-6 Hail 1.75 in. 0 0 6.00K 0.00K
ANTELOPE JACK CO. TX 06/20/2011 18:02 CST-6 Hail 1.75 in. 0 0 12.00K 0.00K
GRAHAM YOUNG CO. TX 06/20/2011 18:13 CST-6 Hail 1.75 in. 0 0 300.00K 0.00K
GRAHAM YOUNG CO. TX 06/20/2011 18:17 CST-6 Thunderstorm Wind 43 kts. EG 0 0 15.00K 0.00K
GRAHAM YOUNG CO. TX 06/20/2011 18:22 CST-6 Hail 2.50 in. 0 0 15.00K 0.00K
NEWCASTLE YOUNG CO. TX 06/20/2011 18:26 CST-6 Hail 1.50 in. 0 0 6.00K 0.00K
BRYSON JACK CO. TX 06/20/2011 18:31 CST-6 Hail 1.75 in. 0 0 10.00K 0.00K
BRYSON JACK CO. TX 06/20/2011 18:37 CST-6 Hail 2.75 in. 0 0 15.00K 0.00K
OLNEY YOUNG CO. TX 06/20/2011 18:55 CST-6 Thunderstorm Wind 52 kts. EG 0 0 2.00K 0.00K
BOWIE MONTAGUE CO. TX 06/20/2011 18:55 CST-6 Hail 0.75 in. 0 0 0.00K 0.00K
ELIASVILLE YOUNG CO. TX 06/20/2011 19:15 CST-6 Hail 1.75 in. 0 0 40.00K 0.00K
LOVING YOUNG CO. TX 06/20/2011 19:29 CST-6 Hail 1.75 in. 0 0 7.00K 0.00K
CHICO WISE CO. TX 06/20/2011 19:35 CST-6 Hail 1.75 in. 0 0 10.00K 0.00K
BRIDGEPORT MUNI ARPT WISE CO. TX 06/20/2011 19:35 CST-6 Hail 1.75 in. 0 0 15.00K 0.00K
BRIDGEPORT WISE CO. TX 06/20/2011 19:40 CST-6 Hail 1.25 in. 0 0 7.00K 0.00K
IVAN STEPHENS CO. TX 06/20/2011 19:46 CST-6 Tornado EF0 0 0 0.00K 0.00K
GRAFORD PALO PINTO CO. TX 06/20/2011 20:15 CST-6 Hail 2.75 in. 0 0 40.00K 0.00K
VALLEY VIEW COOKE CO. TX 06/20/2011 20:40 CST-6 Thunderstorm Wind 52 kts. EG 0 0 5.00K 0.00K
PONDER PALMER ARPT DENTON CO. TX 06/20/2011 21:32 CST-6 Hail 1.00 in. 0 0 0.00K 0.00K
KRUM DENTON CO. TX 06/20/2011 21:39 CST-6 Hail 0.88 in. 0 0 0.00K 0.00K
WEATHERFORD PARKER CO. TX 06/20/2011 21:50 CST-6 Thunderstorm Wind 61 kts. EG 0 0 6.00K 0.00K
WEATHERFORD PARKER CO. TX 06/20/2011 21:50 CST-6 Hail 1.75 in. 0 0 20.00K 0.00K
AZLE TARRANT CO. TX 06/20/2011 22:02 CST-6 Hail 2.00 in. 0 0 10.00K 0.00K
SPRINGTOWN PARKER CO. TX 06/20/2011 22:05 CST-6 Hail 1.75 in. 0 0 10.00K 0.00K
PILOT PT DENTON CO. TX 06/20/2011 22:15 CST-6 Thunderstorm Wind 56 kts. EG 0 0 20.00K 0.00K
AZLE TARRANT CO. TX 06/20/2011 22:17 CST-6 Hail 2.00 in. 0 0 10.00K 0.00K
TIOGA GRAYSON CO. TX 06/20/2011 22:21 CST-6 Thunderstorm Wind 54 kts. MG 0 0 1.00K 0.00K
GUNTER GRAYSON CO. TX 06/20/2011 22:25 CST-6 Thunderstorm Wind 61 kts. EG 0 0 5.00K 0.00K
HASLET TARRANT CO. TX 06/20/2011 22:27 CST-6 Hail 1.00 in. 0 0 0.00K 0.00K
JUSTIN DENTON CO. TX 06/20/2011 22:33 CST-6 Hail 1.00 in. 0 0 0.00K 0.00K
BONHAM FANNIN CO. TX 06/20/2011 23:10 CST-6 Thunderstorm Wind 45 kts. EG 0 0 0.50K 0.00K
BONHAM FANNIN CO. TX 06/20/2011 23:10 CST-6 Hail 0.75 in. 0 0 0.00K 0.00K
BRIDGEPORT MUNI ARPT WISE CO. TX 06/21/2011 00:37 CST-6 Thunderstorm Wind 70 kts. EG 0 1 300.00K 0.00K
BRIDGEPORT WISE CO. TX 06/21/2011 00:40 CST-6 Thunderstorm Wind 64 kts. MG 0 0 12.00K 0.00K
DECATUR WISE CO. TX 06/21/2011 00:41 CST-6 Thunderstorm Wind 51 kts. MG 0 0 15.00K 0.00K
DECATUR WISE CO. TX 06/21/2011 00:45 CST-6 Thunderstorm Wind 65 kts. EG 0 1 20.00K 0.00K
AUBREY DENTON CO. TX 06/21/2011 00:55 CST-6 Thunderstorm Wind 56 kts. EG 0 0 7.00K 0.00K
SPRINGTOWN PARKER CO. TX 06/21/2011 01:04 CST-6 Thunderstorm Wind 65 kts. EG 0 0 20.00K 0.00K
RHOME WISE CO. TX 06/21/2011 01:12 CST-6 Thunderstorm Wind 53 kts. EG 0 0 7.00K 0.00K
GUNTER GRAYSON CO. TX 06/21/2011 01:15 CST-6 Hail 0.88 in. 0 0 0.00K 0.00K
STONY DENTON CO. TX 06/21/2011 01:18 CST-6 Thunderstorm Wind 52 kts. EG 0 0 5.00K 0.00K
STONY DENTON CO. TX 06/21/2011 01:20 CST-6 Hail 0.88 in. 0 0 0.00K 0.00K
RHOME WISE CO. TX 06/21/2011 01:21 CST-6 Thunderstorm Wind 52 kts. EG 0 0 3.00K 0.00K
ROANOKE DENTON CO. TX 06/21/2011 01:30 CST-6 Hail 0.75 in. 0 0 0.00K 0.00K
HASLET TARRANT CO. TX 06/21/2011 01:32 CST-6 Hail 1.00 in. 0 0 0.00K 0.00K
DENTON DENTON CO. TX 06/21/2011 01:35 CST-6 Hail 1.00 in. 0 0 0.00K 0.00K
DENTON DENTON CO. TX 06/21/2011 01:35 CST-6 Thunderstorm Wind 65 kts. EG 0 0 15.00K 0.00K
DENTON MUNI ARPT DENTON CO. TX 06/21/2011 01:35 CST-6 Thunderstorm Wind 65 kts. MG 0 0 10.00K 0.00K
ARGYLE DENTON CO. TX 06/21/2011 01:35 CST-6 Thunderstorm Wind 65 kts. EG 0 0 10.00K 0.00K
ARGYLE DENTON CO. TX 06/21/2011 01:39 CST-6 Hail 1.75 in. 0 0 250.00K 0.00K
BARTONVILLE DENTON CO. TX 06/21/2011 01:42 CST-6 Hail 1.75 in. 0 0 250.00K 0.00K
CORINTH DENTON CO. TX 06/21/2011 01:45 CST-6 Thunderstorm Wind 65 kts. EG 0 0 7.00K 0.00K
BARTONVILLE DENTON CO. TX 06/21/2011 01:45 CST-6 Thunderstorm Wind 61 kts. EG 0 0 15.00K 0.00K
BARTONVILLE DENTON CO. TX 06/21/2011 01:45 CST-6 Hail 1.00 in. 0 0 15.00K 0.00K
GRAPEVINE RES DENTON CO. TX 06/21/2011 01:45 CST-6 Hail 1.50 in. 0 0 20.00K 0.00K
LEWISVILLE DENTON CO. TX 06/21/2011 01:54 CST-6 Thunderstorm Wind 56 kts. EG 0 0 8.00K 0.00K
LEWISVILLE DENTON CO. TX 06/21/2011 01:54 CST-6 Hail 0.75 in. 0 0 0.00K 0.00K
GRAPEVINE RES DENTON CO. TX 06/21/2011 01:56 CST-6 Thunderstorm Wind 56 kts. EG 0 0 8.00K 0.00K
LITTLE ELM DENTON CO. TX 06/21/2011 02:00 CST-6 Lightning 0 0 50.00K 0.00K
GRAPEVINE RES DENTON CO. TX 06/21/2011 02:00 CST-6 Lightning 0 0 100.00K 0.00K
LEWISVILLE DENTON CO. TX 06/21/2011 02:03 CST-6 Hail 1.00 in. 0 0 0.00K 0.00K
HEBRON DENTON CO. TX 06/21/2011 02:05 CST-6 Thunderstorm Wind 56 kts. EG 0 0 8.00K 0.00K
CARROLLTON DENTON CO. TX 06/21/2011 02:05 CST-6 Thunderstorm Wind 56 kts. EG 0 0 8.00K 0.00K
LEWISVILLE DENTON CO. TX 06/21/2011 02:05 CST-6 Thunderstorm Wind 56 kts. EG 0 0 12.00K 0.00K
FRISCO COLLIN CO. TX 06/21/2011 02:09 CST-6 Thunderstorm Wind 58 kts. EG 0 0 8.00K 0.00K
UNION BOWER DALLAS CO. TX 06/21/2011 02:36 CST-6 Hail 1.00 in. 0 0 0.00K 0.00K
FORNEY KAUFMAN CO. TX 06/21/2011 05:30 CST-6 Lightning 0 0 25.00K 0.00K
Totals: 0 2 1.802M 0.00K